Terminal Aerodrome Forecast
Issued by NWS

Home | Current Version | Previous Version | Text Only | Print | Product List | Glossary On
Versions: 1 2 3 4 5 6 7 8 9 10 11 12 13 14 15
004
FTUS44 KLZK 210520
TAFPBF
TAF
KPBF 210520Z 2106/2206 VRB06KT P6SM BKN250
     FM211500 12008G16KT P6SM SCT100 OVC250
     FM220000 10010G20KT P6SM VCTS SCT050CB BKN100 PROB30 2202/2206
      5SM -TSRA BR OVC025CB=

USA.gov is the U.S. government's official web portal to all federal, state and local government web resources and services.